Ice Angel — 2BRA3 — position and weather

sailwx.info

Track history (hours):
 
Tides and Currents Weather Stations Pressure Air Temp Water Temp Dewpoint Dewpoint Depression Visibility Wind Speed Wind Dir Waves Ship Positions

Ice Angel

Last reported at 2016-Jul-30 16:32 UTC. Time now 2016-Jul-30 16:51 UTC.
Position N 42°16' E 018°53'.

Length 60 m; draft 3.5 m.

Type: Other ship. MMSI: 235068579.

Date/timePositionNaut miles runAvg speedWind from/ knotsBaromVisibWave heightAir tempDewpointWater temp
2016-Jul-30 16:32N 42°16' E 018°53'0 0.0
2016-Jul-30 15:33N 42°16' E 018°53'0 0.0
2016-Jul-30 13:05N 42°16' E 018°53'3 5.8
2016-Jul-30 12:31N 42°15' E 018°49'1313.0
2016-Jul-30 11:33N 42°22' E 018°35'4 4.5
2016-Jul-30 10:33N 42°27' E 018°34'0 0.0
2016-Jul-30 09:33N 42°27' E 018°34'11 0.2
2016-Jul-28 13:33N 42°28' E 018°20'1211.9
2016-Jul-28 12:33N 42°21' E 018°33'1311.5
2016-Jul-28 11:25N 42°16' E 018°49'4 1.9
2016-Jul-28 09:33N 42°15' E 018°53'0 0.0
2016-Jul-27 21:33N 42°15' E 018°53'0 0.0
2016-Jul-27 18:18N 42°15' E 018°53'0 0.0
2016-Jul-27 17:29N 42°15' E 018°53'0 0.0
2016-Jul-27 16:34N 42°15' E 018°53'0 0.0
2016-Jul-27 13:33N 42°15' E 018°53'0 0.0
2016-Jul-27 11:19N 42°15' E 018°53'810.3
2016-Jul-27 10:33N 42°17' E 018°43'10 9.0
2016-Jul-27 09:27N 42°23' E 018°33'6 6.6
2016-Jul-27 08:33N 42°25' E 018°40'1 0.8
2016-Jul-27 07:33N 42°25' E 018°41'0 0.0
2016-Jul-27 05:30N 42°25' E 018°41'0 0.0
2016-Jul-27 04:33N 42°25' E 018°41'0 0.0
2016-Jul-27 03:33N 42°25' E 018°41'0 0.0
2016-Jul-27 02:33N 42°25' E 018°41'0 0.0
2016-Jul-27 01:33N 42°25' E 018°41'0 0.0
2016-Jul-27 00:33N 42°25' E 018°41'0 0.0
2016-Jul-26 23:33N 42°25' E 018°41'0 0.0
2016-Jul-26 22:33N 42°25' E 018°41'0 0.0
2016-Jul-26 21:33N 42°25' E 018°41'0 0.0
2016-Jul-26 20:33N 42°25' E 018°41'0 0.0
2016-Jul-26 19:33N 42°25' E 018°41'0 0.0
2016-Jul-26 18:33N 42°25' E 018°41'0 0.0
2016-Jul-26 17:33N 42°25' E 018°41'0 0.0
2016-Jul-26 16:33N 42°25' E 018°41'0 0.0
2016-Jul-26 15:33N 42°25' E 018°41'0 0.0
2016-Jul-26 14:34N 42°25' E 018°41'0 0.0
2016-Jul-26 13:34N 42°25' E 018°41'0 0.0
2016-Jul-26 12:33N 42°25' E 018°41'0 0.0
2016-Jul-26 11:33N 42°25' E 018°41'0 0.0
2016-Jul-26 10:33N 42°25' E 018°41'0 0.0
2016-Jul-26 09:33N 42°25' E 018°41'0 0.0
2016-Jul-26 08:33N 42°25' E 018°41'0 0.0
2016-Jul-26 07:33N 42°25' E 018°41'0 0.0
2016-Jul-26 06:33N 42°25' E 018°41'0 0.0
2016-Jul-26 05:33N 42°25' E 018°41'0 0.0
2016-Jul-26 04:33N 42°25' E 018°41'0 0.0
2016-Jul-26 03:33N 42°25' E 018°41'0 0.0
2016-Jul-26 02:34N 42°25' E 018°41'0 0.0
2016-Jul-26 01:33N 42°25' E 018°41'0 0.0
2016-Jul-26 00:33N 42°25' E 018°41'0 0.0
2016-Jul-25 23:33N 42°25' E 018°41'0 0.0
2016-Jul-25 22:34N 42°25' E 018°41'0 0.0
2016-Jul-25 21:33N 42°25' E 018°41'0 0.0
2016-Jul-25 20:33N 42°25' E 018°41'0 0.0
2016-Jul-25 19:33N 42°25' E 018°41'0 0.0
2016-Jul-25 18:33N 42°25' E 018°41'0 0.0
2016-Jul-25 17:33N 42°25' E 018°41'0 0.0
2016-Jul-25 16:33N 42°25' E 018°41'0 0.0
2016-Jul-25 15:34N 42°25' E 018°41'0 0.0
2016-Jul-25 14:33N 42°25' E 018°41'0 0.0
2016-Jul-25 13:33N 42°25' E 018°41'0 0.0
2016-Jul-25 12:33N 42°25' E 018°41'0 0.0
2016-Jul-25 11:33N 42°25' E 018°41'0 0.0
2016-Jul-25 10:34N 42°25' E 018°41'0 0.0
2016-Jul-25 09:33N 42°25' E 018°41'0 0.0
2016-Jul-25 08:33N 42°25' E 018°41'0 0.0
2016-Jul-25 07:33N 42°25' E 018°41'0 0.0
2016-Jul-25 06:33N 42°25' E 018°41'0 0.0
2016-Jul-25 05:33N 42°25' E 018°41'0 0.0
2016-Jul-25 04:33N 42°25' E 018°41'0 0.0
2016-Jul-25 03:33N 42°25' E 018°41'0 0.0
2016-Jul-25 02:33N 42°25' E 018°41'0 0.0
2016-Jul-25 01:34N 42°25' E 018°41'0 0.0
2016-Jul-25 00:33N 42°25' E 018°41'0 0.0
2016-Jul-24 23:33N 42°25' E 018°41'0 0.0
2016-Jul-24 22:33N 42°25' E 018°41'0 0.0
2016-Jul-24 21:34N 42°25' E 018°41'0 0.0
2016-Jul-24 20:33N 42°25' E 018°41'0 0.0
2016-Jul-24 19:33N 42°25' E 018°41'0 0.0
2016-Jul-24 18:33N 42°25' E 018°41'0 0.0
2016-Jul-24 17:33N 42°25' E 018°41'0 0.0
2016-Jul-24 16:33N 42°25' E 018°41'0 0.0
2016-Jul-24 15:33N 42°25' E 018°41'0 0.0
2016-Jul-24 14:33N 42°25' E 018°41'0 0.0
2016-Jul-24 13:33N 42°25' E 018°41'0 0.0
2016-Jul-24 12:33N 42°25' E 018°41'0 0.0
2016-Jul-24 11:33N 42°25' E 018°41'0 0.0
2016-Jul-24 10:33N 42°25' E 018°41'0 0.0
2016-Jul-24 09:33N 42°25' E 018°41'0 0.0
2016-Jul-24 08:33N 42°25' E 018°41'1 1.2
2016-Jul-24 07:33N 42°26' E 018°41'6 6.0
2016-Jul-24 06:30N 42°25' E 018°32'1212.5
2016-Jul-24 05:31N 42°13' E 018°35'  
Track history (hours):
 
Tides and Currents Weather Stations Pressure Air Temp Water Temp Dewpoint Dewpoint Depression Visibility Wind Speed Wind Dir Waves Ship Positions

Ice Angel

Last reported at 2016-Jul-30 16:32 UTC. Time now 2016-Jul-30 16:51 UTC.
Position N 42°16' E 018°53'.

Length 60 m; draft 3.5 m.

Type: Other ship. MMSI: 235068579.

Date/timePositionNaut miles runAvg speedWind from/ knotsBaromVisibWave heightAir tempDewpointWater temp
2016-Jul-30 16:32N 42°16' E 018°53'0 0.0
2016-Jul-30 15:33N 42°16' E 018°53'0 0.0
2016-Jul-30 13:05N 42°16' E 018°53'3 5.8
2016-Jul-30 12:31N 42°15' E 018°49'1313.0
2016-Jul-30 11:33N 42°22' E 018°35'4 4.5
2016-Jul-30 10:33N 42°27' E 018°34'0 0.0
2016-Jul-30 09:33N 42°27' E 018°34'11 0.2
2016-Jul-28 13:33N 42°28' E 018°20'1211.9
2016-Jul-28 12:33N 42°21' E 018°33'1311.5
2016-Jul-28 11:25N 42°16' E 018°49'4 1.9
2016-Jul-28 09:33N 42°15' E 018°53'0 0.0
2016-Jul-27 21:33N 42°15' E 018°53'0 0.0
2016-Jul-27 18:18N 42°15' E 018°53'0 0.0
2016-Jul-27 17:29N 42°15' E 018°53'0 0.0
2016-Jul-27 16:34N 42°15' E 018°53'0 0.0
2016-Jul-27 13:33N 42°15' E 018°53'0 0.0
2016-Jul-27 11:19N 42°15' E 018°53'810.3
2016-Jul-27 10:33N 42°17' E 018°43'10 9.0
2016-Jul-27 09:27N 42°23' E 018°33'6 6.6
2016-Jul-27 08:33N 42°25' E 018°40'1 0.8
2016-Jul-27 07:33N 42°25' E 018°41'0 0.0
2016-Jul-27 05:30N 42°25' E 018°41'0 0.0
2016-Jul-27 04:33N 42°25' E 018°41'0 0.0
2016-Jul-27 03:33N 42°25' E 018°41'0 0.0
2016-Jul-27 02:33N 42°25' E 018°41'0 0.0
2016-Jul-27 01:33N 42°25' E 018°41'0 0.0
2016-Jul-27 00:33N 42°25' E 018°41'0 0.0
2016-Jul-26 23:33N 42°25' E 018°41'0 0.0
2016-Jul-26 22:33N 42°25' E 018°41'0 0.0
2016-Jul-26 21:33N 42°25' E 018°41'0 0.0
2016-Jul-26 20:33N 42°25' E 018°41'0 0.0
2016-Jul-26 19:33N 42°25' E 018°41'0 0.0
2016-Jul-26 18:33N 42°25' E 018°41'0 0.0
2016-Jul-26 17:33N 42°25' E 018°41'0 0.0
2016-Jul-26 16:33N 42°25' E 018°41'0 0.0
2016-Jul-26 15:33N 42°25' E 018°41'0 0.0
2016-Jul-26 14:34N 42°25' E 018°41'0 0.0
2016-Jul-26 13:34N 42°25' E 018°41'0 0.0
2016-Jul-26 12:33N 42°25' E 018°41'0 0.0
2016-Jul-26 11:33N 42°25' E 018°41'0 0.0
2016-Jul-26 10:33N 42°25' E 018°41'0 0.0
2016-Jul-26 09:33N 42°25' E 018°41'0 0.0
2016-Jul-26 08:33N 42°25' E 018°41'0 0.0
2016-Jul-26 07:33N 42°25' E 018°41'0 0.0
2016-Jul-26 06:33N 42°25' E 018°41'0 0.0
2016-Jul-26 05:33N 42°25' E 018°41'0 0.0
2016-Jul-26 04:33N 42°25' E 018°41'0 0.0
2016-Jul-26 03:33N 42°25' E 018°41'0 0.0
2016-Jul-26 02:34N 42°25' E 018°41'0 0.0
2016-Jul-26 01:33N 42°25' E 018°41'0 0.0
2016-Jul-26 00:33N 42°25' E 018°41'0 0.0
2016-Jul-25 23:33N 42°25' E 018°41'0 0.0
2016-Jul-25 22:34N 42°25' E 018°41'0 0.0
2016-Jul-25 21:33N 42°25' E 018°41'0 0.0
2016-Jul-25 20:33N 42°25' E 018°41'0 0.0
2016-Jul-25 19:33N 42°25' E 018°41'0 0.0
2016-Jul-25 18:33N 42°25' E 018°41'0 0.0
2016-Jul-25 17:33N 42°25' E 018°41'0 0.0
2016-Jul-25 16:33N 42°25' E 018°41'0 0.0
2016-Jul-25 15:34N 42°25' E 018°41'0 0.0
2016-Jul-25 14:33N 42°25' E 018°41'0 0.0
2016-Jul-25 13:33N 42°25' E 018°41'0 0.0
2016-Jul-25 12:33N 42°25' E 018°41'0 0.0
2016-Jul-25 11:33N 42°25' E 018°41'0 0.0
2016-Jul-25 10:34N 42°25' E 018°41'0 0.0
2016-Jul-25 09:33N 42°25' E 018°41'0 0.0
2016-Jul-25 08:33N 42°25' E 018°41'0 0.0
2016-Jul-25 07:33N 42°25' E 018°41'0 0.0
2016-Jul-25 06:33N 42°25' E 018°41'0 0.0
2016-Jul-25 05:33N 42°25' E 018°41'0 0.0
2016-Jul-25 04:33N 42°25' E 018°41'0 0.0
2016-Jul-25 03:33N 42°25' E 018°41'0 0.0
2016-Jul-25 02:33N 42°25' E 018°41'0 0.0
2016-Jul-25 01:34N 42°25' E 018°41'0 0.0
2016-Jul-25 00:33N 42°25' E 018°41'0 0.0
2016-Jul-24 23:33N 42°25' E 018°41'0 0.0
2016-Jul-24 22:33N 42°25' E 018°41'0 0.0
2016-Jul-24 21:34N 42°25' E 018°41'0 0.0
2016-Jul-24 20:33N 42°25' E 018°41'0 0.0
2016-Jul-24 19:33N 42°25' E 018°41'0 0.0
2016-Jul-24 18:33N 42°25' E 018°41'0 0.0
2016-Jul-24 17:33N 42°25' E 018°41'0 0.0
2016-Jul-24 16:33N 42°25' E 018°41'0 0.0
2016-Jul-24 15:33N 42°25' E 018°41'0 0.0
2016-Jul-24 14:33N 42°25' E 018°41'0 0.0
2016-Jul-24 13:33N 42°25' E 018°41'0 0.0
2016-Jul-24 12:33N 42°25' E 018°41'0 0.0
2016-Jul-24 11:33N 42°25' E 018°41'0 0.0
2016-Jul-24 10:33N 42°25' E 018°41'0 0.0
2016-Jul-24 09:33N 42°25' E 018°41'0 0.0
2016-Jul-24 08:33N 42°25' E 018°41'1 1.2
2016-Jul-24 07:33N 42°26' E 018°41'6 6.0
2016-Jul-24 06:30N 42°25' E 018°32'1212.5
2016-Jul-24 05:31N 42°13' E 018°35'  

Dump ship's entire track history